sensor_id;sensor_type;location;lat;lon;timestamp;temperature;humidity
14154;DHT22;7157;53.144;7.570;2023-06-19T00:02:48;23.35;59.15
14154;DHT22;7157;53.144;7.570;2023-06-19T00:12:51;23.28;58.94
14154;DHT22;7157;53.144;7.570;2023-06-19T00:22:55;23.24;58.57
14154;DHT22;7157;53.144;7.570;2023-06-19T00:32:58;23.24;57.99
14154;DHT22;7157;53.144;7.570;2023-06-19T00:43:06;23.13;57.94
14154;DHT22;7157;53.144;7.570;2023-06-19T00:53:09;22.97;57.96
14154;DHT22;7157;53.144;7.570;2023-06-19T01:03:13;22.83;57.92
14154;DHT22;7157;53.144;7.570;2023-06-19T01:13:21;22.79;57.76
14154;DHT22;7157;53.144;7.570;2023-06-19T01:23:28;22.81;57.24
14154;DHT22;7157;53.144;7.570;2023-06-19T01:33:32;22.80;56.99
14154;DHT22;7157;53.144;7.570;2023-06-19T01:43:37;22.80;56.78
14154;DHT22;7157;53.144;7.570;2023-06-19T01:53:40;22.80;55.88
14154;DHT22;7157;53.144;7.570;2023-06-19T02:03:44;22.86;54.14
14154;DHT22;7157;53.144;7.570;2023-06-19T02:13:47;22.92;53.21
14154;DHT22;7157;53.144;7.570;2023-06-19T02:23:51;22.92;52.49
14154;DHT22;7157;53.144;7.570;2023-06-19T02:33:54;22.87;52.23
14154;DHT22;7157;53.144;7.570;2023-06-19T02:43:58;22.96;52.01
14154;DHT22;7157;53.144;7.570;2023-06-19T02:54:01;22.97;51.91
14154;DHT22;7157;53.144;7.570;2023-06-19T03:04:05;22.93;51.77
14154;DHT22;7157;53.144;7.570;2023-06-19T03:14:08;22.81;51.98
14154;DHT22;7157;53.144;7.570;2023-06-19T03:24:12;22.82;51.78
14154;DHT22;7157;53.144;7.570;2023-06-19T03:34:15;22.82;51.81
14154;DHT22;7157;53.144;7.570;2023-06-19T03:44:19;22.93;52.04
14154;DHT22;7157;53.144;7.570;2023-06-19T03:54:22;22.93;52.05
14154;DHT22;7157;53.144;7.570;2023-06-19T04:04:26;22.99;52.94
14154;DHT22;7157;53.144;7.570;2023-06-19T04:14:29;23.18;53.31
14154;DHT22;7157;53.144;7.570;2023-06-19T04:24:33;23.31;53.88
14154;DHT22;7157;53.144;7.570;2023-06-19T04:34:36;23.43;54.30
14154;DHT22;7157;53.144;7.570;2023-06-19T04:44:40;23.51;54.86
14154;DHT22;7157;53.144;7.570;2023-06-19T04:54:43;23.56;55.36
14154;DHT22;7157;53.144;7.570;2023-06-19T05:04:47;23.67;56.01
14154;DHT22;7157;53.144;7.570;2023-06-19T05:14:50;23.72;56.41
14154;DHT22;7157;53.144;7.570;2023-06-19T05:24:54;23.81;56.98
14154;DHT22;7157;53.144;7.570;2023-06-19T05:34:57;23.95;57.15
14154;DHT22;7157;53.144;7.570;2023-06-19T05:45:01;24.16;57.06
14154;DHT22;7157;53.144;7.570;2023-06-19T05:55:05;24.35;56.77
14154;DHT22;7157;53.144;7.570;2023-06-19T06:05:09;24.36;56.23
14154;DHT22;7157;53.144;7.570;2023-06-19T06:15:12;24.42;56.64
14154;DHT22;7157;53.144;7.570;2023-06-19T06:25:16;24.58;56.97
14154;DHT22;7157;53.144;7.570;2023-06-19T06:35:19;24.55;57.10
14154;DHT22;7157;53.144;7.570;2023-06-19T06:45:24;24.57;57.74
14154;DHT22;7157;53.144;7.570;2023-06-19T06:55:28;24.59;58.20
14154;DHT22;7157;53.144;7.570;2023-06-19T07:05:32;24.70;58.32
14154;DHT22;7157;53.144;7.570;2023-06-19T07:15:35;24.91;59.20
14154;DHT22;7157;53.144;7.570;2023-06-19T07:25:39;24.55;62.44
14154;DHT22;7157;53.144;7.570;2023-06-19T07:35:42;25.19;60.80
14154;DHT22;7157;53.144;7.570;2023-06-19T07:45:46;25.05;61.41
14154;DHT22;7157;53.144;7.570;2023-06-19T07:55:49;24.97;62.05
14154;DHT22;7157;53.144;7.570;2023-06-19T08:05:53;24.27;64.55
14154;DHT22;7157;53.144;7.570;2023-06-19T08:15:56;24.06;65.43
14154;DHT22;7157;53.144;7.570;2023-06-19T08:26:00;23.73;67.12
14154;DHT22;7157;53.144;7.570;2023-06-19T08:36:04;23.49;68.67
14154;DHT22;7157;53.144;7.570;2023-06-19T08:46:10;23.57;69.12
14154;DHT22;7157;53.144;7.570;2023-06-19T08:56:13;23.53;70.20
14154;DHT22;7157;53.144;7.570;2023-06-19T09:06:17;23.56;70.59
14154;DHT22;7157;53.144;7.570;2023-06-19T09:16:20;23.70;70.21
14154;DHT22;7157;53.144;7.570;2023-06-19T09:26:27;23.85;67.94
14154;DHT22;7157;53.144;7.570;2023-06-19T09:36:31;23.55;69.08
14154;DHT22;7157;53.144;7.570;2023-06-19T09:46:36;23.58;69.77
14154;DHT22;7157;53.144;7.570;2023-06-19T09:56:40;23.22;70.87
14154;DHT22;7157;53.144;7.570;2023-06-19T10:06:45;23.83;68.12
14154;DHT22;7157;53.144;7.570;2023-06-19T10:16:48;24.14;66.12
14154;DHT22;7157;53.144;7.570;2023-06-19T10:27:00;23.66;66.44
14154;DHT22;7157;53.144;7.570;2023-06-19T10:37:03;23.58;67.40
14154;DHT22;7157;53.144;7.570;2023-06-19T10:47:07;23.32;68.33
14154;DHT22;7157;53.144;7.570;2023-06-19T10:57:10;24.54;64.35
14154;DHT22;7157;53.144;7.570;2023-06-19T11:07:16;26.12;59.73
14154;DHT22;7157;53.144;7.570;2023-06-19T11:17:19;25.30;60.64
14154;DHT22;7157;53.144;7.570;2023-06-19T11:27:24;27.29;55.32
14154;DHT22;7157;53.144;7.570;2023-06-19T11:37:29;28.30;49.73
14154;DHT22;7157;53.144;7.570;2023-06-19T11:47:34;32.70;37.53
14154;DHT22;7157;53.144;7.570;2023-06-19T11:57:38;29.63;42.65
14154;DHT22;7157;53.144;7.570;2023-06-19T12:07:42;30.30;40.32
14154;DHT22;7157;53.144;7.570;2023-06-19T12:17:45;28.74;44.78
14154;DHT22;7157;53.144;7.570;2023-06-19T12:27:49;32.47;37.27
14154;DHT22;7157;53.144;7.570;2023-06-19T12:37:56;33.08;33.72
14154;DHT22;7157;53.144;7.570;2023-06-19T12:48:00;30.95;38.79
14154;DHT22;7157;53.144;7.570;2023-06-19T12:58:03;32.25;36.33
14154;DHT22;7157;53.144;7.570;2023-06-19T13:08:07;28.09;44.02
14154;DHT22;7157;53.144;7.570;2023-06-19T13:18:10;28.23;43.64
14154;DHT22;7157;53.144;7.570;2023-06-19T13:28:14;27.63;45.23
14154;DHT22;7157;53.144;7.570;2023-06-19T13:38:16;27.91;45.09
14154;DHT22;7157;53.144;7.570;2023-06-19T13:48:21;28.35;42.61
14154;DHT22;7157;53.144;7.570;2023-06-19T13:58:24;28.37;42.69
14154;DHT22;7157;53.144;7.570;2023-06-19T14:08:28;28.09;42.87
14154;DHT22;7157;53.144;7.570;2023-06-19T14:18:31;27.42;42.79
14154;DHT22;7157;53.144;7.570;2023-06-19T14:28:36;28.18;41.00
14154;DHT22;7157;53.144;7.570;2023-06-19T14:38:40;27.94;41.81
14154;DHT22;7157;53.144;7.570;2023-06-19T14:48:44;27.89;41.94
14154;DHT22;7157;53.144;7.570;2023-06-19T14:58:49;27.95;41.84
14154;DHT22;7157;53.144;7.570;2023-06-19T15:08:53;27.71;41.62
14154;DHT22;7157;53.144;7.570;2023-06-19T15:18:56;27.84;41.83
14154;DHT22;7157;53.144;7.570;2023-06-19T15:29:00;27.51;41.95
14154;DHT22;7157;53.144;7.570;2023-06-19T15:39:03;27.44;41.56
14154;DHT22;7157;53.144;7.570;2023-06-19T15:49:08;27.70;42.42
14154;DHT22;7157;53.144;7.570;2023-06-19T15:59:13;27.58;42.08
14154;DHT22;7157;53.144;7.570;2023-06-19T16:09:17;27.93;41.77
14154;DHT22;7157;53.144;7.570;2023-06-19T16:19:20;27.36;42.81
14154;DHT22;7157;53.144;7.570;2023-06-19T16:29:24;27.08;44.44
14154;DHT22;7157;53.144;7.570;2023-06-19T16:39:27;27.99;42.39
14154;DHT22;7157;53.144;7.570;2023-06-19T16:49:31;27.42;43.44
14154;DHT22;7157;53.144;7.570;2023-06-19T16:59:34;27.69;43.50
14154;DHT22;7157;53.144;7.570;2023-06-19T17:09:38;27.05;43.80
14154;DHT22;7157;53.144;7.570;2023-06-19T17:19:41;27.41;43.32
14154;DHT22;7157;53.144;7.570;2023-06-19T17:29:45;27.28;42.19
14154;DHT22;7157;53.144;7.570;2023-06-19T17:39:48;27.55;41.47
14154;DHT22;7157;53.144;7.570;2023-06-19T17:49:52;27.80;39.40
14154;DHT22;7157;53.144;7.570;2023-06-19T17:59:55;27.54;40.49
14154;DHT22;7157;53.144;7.570;2023-06-19T18:09:59;27.46;40.80
14154;DHT22;7157;53.144;7.570;2023-06-19T18:20:03;27.66;41.60
14154;DHT22;7157;53.144;7.570;2023-06-19T18:30:08;27.63;42.13
14154;DHT22;7157;53.144;7.570;2023-06-19T18:40:11;27.15;43.48
14154;DHT22;7157;53.144;7.570;2023-06-19T18:50:16;26.26;46.03
14154;DHT22;7157;53.144;7.570;2023-06-19T19:00:19;25.80;47.18
14154;DHT22;7157;53.144;7.570;2023-06-19T19:10:23;25.10;48.10
14154;DHT22;7157;53.144;7.570;2023-06-19T19:20:27;24.82;48.70
14154;DHT22;7157;53.144;7.570;2023-06-19T19:30:31;24.47;49.97
14154;DHT22;7157;53.144;7.570;2023-06-19T19:40:34;23.89;52.01
14154;DHT22;7157;53.144;7.570;2023-06-19T19:50:38;23.47;53.46
14154;DHT22;7157;53.144;7.570;2023-06-19T20:00:41;23.03;57.31
14154;DHT22;7157;53.144;7.570;2023-06-19T20:10:51;22.58;59.79
14154;DHT22;7157;53.144;7.570;2023-06-19T20:20:54;22.32;62.89
14154;DHT22;7157;53.144;7.570;2023-06-19T20:30:58;21.93;65.91
14154;DHT22;7157;53.144;7.570;2023-06-19T20:41:01;21.77;66.85
14154;DHT22;7157;53.144;7.570;2023-06-19T20:51:05;21.52;67.87
14154;DHT22;7157;53.144;7.570;2023-06-19T21:01:09;21.34;68.81
14154;DHT22;7157;53.144;7.570;2023-06-19T21:11:13;21.10;69.83
14154;DHT22;7157;53.144;7.570;2023-06-19T21:21:16;20.83;71.29
14154;DHT22;7157;53.144;7.570;2023-06-19T21:31:20;20.70;72.22
14154;DHT22;7157;53.144;7.570;2023-06-19T21:41:23;20.51;73.23
14154;DHT22;7157;53.144;7.570;2023-06-19T21:51:27;20.28;74.24
14154;DHT22;7157;53.144;7.570;2023-06-19T22:01:30;20.05;75.19
14154;DHT22;7157;53.144;7.570;2023-06-19T22:11:34;19.81;77.30
14154;DHT22;7157;53.144;7.570;2023-06-19T22:21:37;19.87;77.58
14154;DHT22;7157;53.144;7.570;2023-06-19T22:31:44;19.61;79.59
14154;DHT22;7157;53.144;7.570;2023-06-19T22:41:47;19.40;82.47
14154;DHT22;7157;53.144;7.570;2023-06-19T22:51:51;19.26;81.90
14154;DHT22;7157;53.144;7.570;2023-06-19T23:01:54;19.31;82.18
14154;DHT22;7157;53.144;7.570;2023-06-19T23:11:58;19.42;82.06
14154;DHT22;7157;53.144;7.570;2023-06-19T23:22:02;19.22;82.62
14154;DHT22;7157;53.144;7.570;2023-06-19T23:32:06;19.13;83.20
14154;DHT22;7157;53.144;7.570;2023-06-19T23:42:09;19.07;84.28
14154;DHT22;7157;53.144;7.570;2023-06-19T23:52:14;18.93;86.54
